sensor_id;sensor_type;location;lat;lon;timestamp;temperature;humidity
38090;DHT22;23904;52.322;10.232;2022-07-29T00:00:10;17.40;71.30
38090;DHT22;23904;52.322;10.232;2022-07-29T00:02:36;17.40;71.50
38090;DHT22;23904;52.322;10.232;2022-07-29T00:05:03;17.40;71.40
38090;DHT22;23904;52.322;10.232;2022-07-29T00:07:29;17.50;71.00
38090;DHT22;23904;52.322;10.232;2022-07-29T00:09:54;17.50;71.20
38090;DHT22;23904;52.322;10.232;2022-07-29T00:12:21;17.50;71.30
38090;DHT22;23904;52.322;10.232;2022-07-29T00:14:47;17.50;71.20
38090;DHT22;23904;52.322;10.232;2022-07-29T00:17:13;17.60;71.10
38090;DHT22;23904;52.322;10.232;2022-07-29T00:19:38;17.60;70.80
38090;DHT22;23904;52.322;10.232;2022-07-29T00:22:04;17.60;71.00
38090;DHT22;23904;52.322;10.232;2022-07-29T00:24:29;17.60;70.90
38090;DHT22;23904;52.322;10.232;2022-07-29T00:26:55;17.60;71.10
38090;DHT22;23904;52.322;10.232;2022-07-29T00:29:20;17.60;71.10
38090;DHT22;23904;52.322;10.232;2022-07-29T00:31:46;17.50;70.80
38090;DHT22;23904;52.322;10.232;2022-07-29T00:34:11;17.60;70.90
38090;DHT22;23904;52.322;10.232;2022-07-29T00:36:56;17.50;71.20
38090;DHT22;23904;52.322;10.232;2022-07-29T00:39:22;17.40;71.70
38090;DHT22;23904;52.322;10.232;2022-07-29T00:41:48;17.50;71.60
38090;DHT22;23904;52.322;10.232;2022-07-29T00:44:14;17.40;71.80
38090;DHT22;23904;52.322;10.232;2022-07-29T00:46:39;17.40;71.80
38090;DHT22;23904;52.322;10.232;2022-07-29T00:49:05;17.40;71.90
38090;DHT22;23904;52.322;10.232;2022-07-29T00:51:34;17.40;72.00
38090;DHT22;23904;52.322;10.232;2022-07-29T00:54:01;17.40;72.20
38090;DHT22;23904;52.322;10.232;2022-07-29T00:56:29;17.40;72.20
38090;DHT22;23904;52.322;10.232;2022-07-29T00:58:57;17.40;72.00
38090;DHT22;23904;52.322;10.232;2022-07-29T01:01:22;17.40;72.30
38090;DHT22;23904;52.322;10.232;2022-07-29T01:03:49;17.40;72.40
38090;DHT22;23904;52.322;10.232;2022-07-29T01:06:16;17.40;72.70
38090;DHT22;23904;52.322;10.232;2022-07-29T01:08:42;17.30;72.70
38090;DHT22;23904;52.322;10.232;2022-07-29T01:11:09;17.40;72.60
38090;DHT22;23904;52.322;10.232;2022-07-29T01:13:35;17.40;72.50
38090;DHT22;23904;52.322;10.232;2022-07-29T01:16:14;17.40;72.40
38090;DHT22;23904;52.322;10.232;2022-07-29T01:18:45;17.40;72.60
38090;DHT22;23904;52.322;10.232;2022-07-29T01:21:27;17.40;72.40
38090;DHT22;23904;52.322;10.232;2022-07-29T01:29:45;17.20;73.10
38090;DHT22;23904;52.322;10.232;2022-07-29T01:32:17;17.30;72.70
38090;DHT22;23904;52.322;10.232;2022-07-29T01:35:44;17.30;73.00
38090;DHT22;23904;52.322;10.232;2022-07-29T01:42:58;17.30;73.30
38090;DHT22;23904;52.322;10.232;2022-07-29T01:45:40;17.30;73.10
38090;DHT22;23904;52.322;10.232;2022-07-29T01:48:24;17.30;73.10
38090;DHT22;23904;52.322;10.232;2022-07-29T01:51:01;17.30;73.20
38090;DHT22;23904;52.322;10.232;2022-07-29T01:56:16;17.20;73.70
38090;DHT22;23904;52.322;10.232;2022-07-29T01:58:44;17.20;73.90
38090;DHT22;23904;52.322;10.232;2022-07-29T02:01:11;17.20;73.70
38090;DHT22;23904;52.322;10.232;2022-07-29T02:03:39;17.10;74.00
38090;DHT22;23904;52.322;10.232;2022-07-29T02:06:09;17.20;73.50
38090;DHT22;23904;52.322;10.232;2022-07-29T02:08:37;17.20;73.70
38090;DHT22;23904;52.322;10.232;2022-07-29T02:11:04;17.20;73.70
38090;DHT22;23904;52.322;10.232;2022-07-29T02:13:32;17.20;74.00
38090;DHT22;23904;52.322;10.232;2022-07-29T02:16:00;17.20;74.10
38090;DHT22;23904;52.322;10.232;2022-07-29T02:18:28;17.10;74.10
38090;DHT22;23904;52.322;10.232;2022-07-29T02:20:56;17.20;73.90
38090;DHT22;23904;52.322;10.232;2022-07-29T02:23:24;17.10;74.40
38090;DHT22;23904;52.322;10.232;2022-07-29T02:25:54;17.10;74.50
38090;DHT22;23904;52.322;10.232;2022-07-29T02:28:21;17.10;74.30
38090;DHT22;23904;52.322;10.232;2022-07-29T02:30:48;17.10;74.70
38090;DHT22;23904;52.322;10.232;2022-07-29T02:33:16;17.00;74.80
38090;DHT22;23904;52.322;10.232;2022-07-29T02:35:45;17.00;74.80
38090;DHT22;23904;52.322;10.232;2022-07-29T02:38:13;17.00;74.90
38090;DHT22;23904;52.322;10.232;2022-07-29T02:41:01;16.90;74.90
38090;DHT22;23904;52.322;10.232;2022-07-29T02:43:28;16.90;75.40
38090;DHT22;23904;52.322;10.232;2022-07-29T02:45:56;16.80;75.70
38090;DHT22;23904;52.322;10.232;2022-07-29T02:48:39;16.80;75.70
38090;DHT22;23904;52.322;10.232;2022-07-29T02:51:17;16.80;76.30
38090;DHT22;23904;52.322;10.232;2022-07-29T02:53:49;16.80;76.00
38090;DHT22;23904;52.322;10.232;2022-07-29T02:56:17;16.90;76.20
38090;DHT22;23904;52.322;10.232;2022-07-29T02:58:52;16.90;76.20
38090;DHT22;23904;52.322;10.232;2022-07-29T03:01:23;16.80;76.10
38090;DHT22;23904;52.322;10.232;2022-07-29T03:03:53;16.90;76.00
38090;DHT22;23904;52.322;10.232;2022-07-29T03:06:21;16.80;76.30
38090;DHT22;23904;52.322;10.232;2022-07-29T03:08:48;16.80;76.10
38090;DHT22;23904;52.322;10.232;2022-07-29T03:11:15;16.90;76.30
38090;DHT22;23904;52.322;10.232;2022-07-29T03:13:41;16.80;77.40
38090;DHT22;23904;52.322;10.232;2022-07-29T03:16:07;16.70;76.90
38090;DHT22;23904;52.322;10.232;2022-07-29T03:18:34;16.80;77.00
38090;DHT22;23904;52.322;10.232;2022-07-29T03:21:00;16.80;77.00
38090;DHT22;23904;52.322;10.232;2022-07-29T03:23:26;16.80;77.10
38090;DHT22;23904;52.322;10.232;2022-07-29T03:25:53;16.70;77.40
38090;DHT22;23904;52.322;10.232;2022-07-29T03:28:20;16.70;77.60
38090;DHT22;23904;52.322;10.232;2022-07-29T03:30:46;16.60;78.00
38090;DHT22;23904;52.322;10.232;2022-07-29T03:33:12;16.60;78.10
38090;DHT22;23904;52.322;10.232;2022-07-29T03:35:37;16.60;78.10
38090;DHT22;23904;52.322;10.232;2022-07-29T03:38:03;16.50;78.60
38090;DHT22;23904;52.322;10.232;2022-07-29T03:40:44;16.50;78.80
38090;DHT22;23904;52.322;10.232;2022-07-29T03:43:13;16.50;78.80
38090;DHT22;23904;52.322;10.232;2022-07-29T03:45:43;16.40;79.40
38090;DHT22;23904;52.322;10.232;2022-07-29T03:48:13;16.40;79.40
38090;DHT22;23904;52.322;10.232;2022-07-29T03:50:39;16.40;79.60
38090;DHT22;23904;52.322;10.232;2022-07-29T03:53:05;16.40;79.90
38090;DHT22;23904;52.322;10.232;2022-07-29T03:55:36;16.40;79.90
38090;DHT22;23904;52.322;10.232;2022-07-29T03:58:03;16.40;79.80
38090;DHT22;23904;52.322;10.232;2022-07-29T04:00:28;16.40;80.20
38090;DHT22;23904;52.322;10.232;2022-07-29T04:02:54;16.40;80.40
38090;DHT22;23904;52.322;10.232;2022-07-29T04:05:20;16.30;80.50
38090;DHT22;23904;52.322;10.232;2022-07-29T04:07:47;16.30;80.70
38090;DHT22;23904;52.322;10.232;2022-07-29T04:10:14;16.40;80.60
38090;DHT22;23904;52.322;10.232;2022-07-29T04:12:41;16.30;80.90
38090;DHT22;23904;52.322;10.232;2022-07-29T04:15:07;16.30;80.70
38090;DHT22;23904;52.322;10.232;2022-07-29T04:17:33;16.30;81.10
38090;DHT22;23904;52.322;10.232;2022-07-29T04:19:59;16.30;81.90
38090;DHT22;23904;52.322;10.232;2022-07-29T04:22:24;16.40;81.50
38090;DHT22;23904;52.322;10.232;2022-07-29T04:24:51;16.40;81.60
38090;DHT22;23904;52.322;10.232;2022-07-29T04:27:16;16.40;81.70
38090;DHT22;23904;52.322;10.232;2022-07-29T04:29:42;16.40;81.60
38090;DHT22;23904;52.322;10.232;2022-07-29T04:32:07;16.40;82.20
38090;DHT22;23904;52.322;10.232;2022-07-29T04:34:33;16.40;82.40
38090;DHT22;23904;52.322;10.232;2022-07-29T04:36:59;16.30;82.90
38090;DHT22;23904;52.322;10.232;2022-07-29T04:39:24;16.40;81.90
38090;DHT22;23904;52.322;10.232;2022-07-29T04:41:51;16.40;82.10
38090;DHT22;23904;52.322;10.232;2022-07-29T04:44:16;16.40;82.20
38090;DHT22;23904;52.322;10.232;2022-07-29T04:46:42;16.50;81.80
38090;DHT22;23904;52.322;10.232;2022-07-29T04:49:07;16.60;81.50
38090;DHT22;23904;52.322;10.232;2022-07-29T04:51:33;16.60;81.60
38090;DHT22;23904;52.322;10.232;2022-07-29T04:53:59;16.60;81.70
38090;DHT22;23904;52.322;10.232;2022-07-29T04:56:25;16.60;82.10
38090;DHT22;23904;52.322;10.232;2022-07-29T04:58:50;16.60;82.20
38090;DHT22;23904;52.322;10.232;2022-07-29T05:01:16;16.60;82.10
38090;DHT22;23904;52.322;10.232;2022-07-29T05:03:41;16.70;81.60
38090;DHT22;23904;52.322;10.232;2022-07-29T05:06:07;16.70;81.70
38090;DHT22;23904;52.322;10.232;2022-07-29T05:08:33;16.60;82.30
38090;DHT22;23904;52.322;10.232;2022-07-29T05:10:58;16.70;82.40
38090;DHT22;23904;52.322;10.232;2022-07-29T05:13:24;16.70;82.20
38090;DHT22;23904;52.322;10.232;2022-07-29T05:15:49;16.80;82.80
38090;DHT22;23904;52.322;10.232;2022-07-29T05:18:15;16.90;82.00
38090;DHT22;23904;52.322;10.232;2022-07-29T05:20:41;16.80;81.80
38090;DHT22;23904;52.322;10.232;2022-07-29T05:23:07;16.80;82.10
38090;DHT22;23904;52.322;10.232;2022-07-29T05:25:32;16.90;82.00
38090;DHT22;23904;52.322;10.232;2022-07-29T05:27:58;16.90;81.90
38090;DHT22;23904;52.322;10.232;2022-07-29T05:30:24;17.00;81.90
38090;DHT22;23904;52.322;10.232;2022-07-29T05:32:49;17.00;81.60
38090;DHT22;23904;52.322;10.232;2022-07-29T05:35:16;17.00;82.00
38090;DHT22;23904;52.322;10.232;2022-07-29T05:37:42;17.00;82.30
38090;DHT22;23904;52.322;10.232;2022-07-29T05:40:08;17.10;82.30
38090;DHT22;23904;52.322;10.232;2022-07-29T05:42:34;17.00;82.70
38090;DHT22;23904;52.322;10.232;2022-07-29T05:45:00;17.00;82.50
38090;DHT22;23904;52.322;10.232;2022-07-29T05:47:26;17.10;82.40
38090;DHT22;23904;52.322;10.232;2022-07-29T05:49:51;17.20;82.10
38090;DHT22;23904;52.322;10.232;2022-07-29T05:52:17;17.10;82.60
38090;DHT22;23904;52.322;10.232;2022-07-29T05:54:43;17.20;82.90
38090;DHT22;23904;52.322;10.232;2022-07-29T05:57:14;17.20;82.10
38090;DHT22;23904;52.322;10.232;2022-07-29T05:59:40;17.20;82.50
38090;DHT22;23904;52.322;10.232;2022-07-29T06:02:05;17.10;82.80
38090;DHT22;23904;52.322;10.232;2022-07-29T06:04:32;17.10;83.30
38090;DHT22;23904;52.322;10.232;2022-07-29T06:06:57;17.10;83.00
38090;DHT22;23904;52.322;10.232;2022-07-29T06:09:23;17.20;83.10
38090;DHT22;23904;52.322;10.232;2022-07-29T06:11:49;17.10;83.60
38090;DHT22;23904;52.322;10.232;2022-07-29T06:14:14;17.20;84.30
38090;DHT22;23904;52.322;10.232;2022-07-29T06:16:40;17.30;83.40
38090;DHT22;23904;52.322;10.232;2022-07-29T06:19:06;17.40;83.10
38090;DHT22;23904;52.322;10.232;2022-07-29T06:21:32;17.50;83.10
38090;DHT22;23904;52.322;10.232;2022-07-29T06:23:59;17.60;82.00
38090;DHT22;23904;52.322;10.232;2022-07-29T06:26:24;17.90;81.80
38090;DHT22;23904;52.322;10.232;2022-07-29T06:28:50;17.90;81.80
38090;DHT22;23904;52.322;10.232;2022-07-29T06:31:15;17.90;81.60
38090;DHT22;23904;52.322;10.232;2022-07-29T06:33:41;17.90;81.30
38090;DHT22;23904;52.322;10.232;2022-07-29T06:36:07;18.00;81.20
38090;DHT22;23904;52.322;10.232;2022-07-29T06:38:33;18.10;80.60
38090;DHT22;23904;52.322;10.232;2022-07-29T06:40:59;18.10;80.60
38090;DHT22;23904;52.322;10.232;2022-07-29T06:43:35;18.10;81.40
38090;DHT22;23904;52.322;10.232;2022-07-29T06:46:04;18.10;82.20
38090;DHT22;23904;52.322;10.232;2022-07-29T06:48:31;18.20;81.20
38090;DHT22;23904;52.322;10.232;2022-07-29T06:50:57;18.40;81.50
38090;DHT22;23904;52.322;10.232;2022-07-29T06:53:23;18.30;81.40
38090;DHT22;23904;52.322;10.232;2022-07-29T06:55:49;18.20;81.80
38090;DHT22;23904;52.322;10.232;2022-07-29T06:58:14;18.30;81.10
38090;DHT22;23904;52.322;10.232;2022-07-29T07:00:44;18.30;81.70
38090;DHT22;23904;52.322;10.232;2022-07-29T07:03:10;18.40;81.30
38090;DHT22;23904;52.322;10.232;2022-07-29T07:05:36;18.50;81.10
38090;DHT22;23904;52.322;10.232;2022-07-29T07:08:02;18.60;80.90
38090;DHT22;23904;52.322;10.232;2022-07-29T07:10:28;18.60;81.00
38090;DHT22;23904;52.322;10.232;2022-07-29T07:12:53;18.60;81.10
38090;DHT22;23904;52.322;10.232;2022-07-29T07:15:19;18.50;81.60
38090;DHT22;23904;52.322;10.232;2022-07-29T07:17:48;18.50;82.20
38090;DHT22;23904;52.322;10.232;2022-07-29T07:20:14;18.60;81.90
38090;DHT22;23904;52.322;10.232;2022-07-29T07:22:39;18.80;81.20
38090;DHT22;23904;52.322;10.232;2022-07-29T07:25:06;18.90;81.00
38090;DHT22;23904;52.322;10.232;2022-07-29T07:27:31;19.10;80.90
38090;DHT22;23904;52.322;10.232;2022-07-29T07:29:57;19.40;80.20
38090;DHT22;23904;52.322;10.232;2022-07-29T07:32:22;19.80;78.20
38090;DHT22;23904;52.322;10.232;2022-07-29T07:34:48;19.90;77.50
38090;DHT22;23904;52.322;10.232;2022-07-29T07:37:14;20.10;77.00
38090;DHT22;23904;52.322;10.232;2022-07-29T07:39:40;20.30;75.70
38090;DHT22;23904;52.322;10.232;2022-07-29T07:42:06;20.40;75.70
38090;DHT22;23904;52.322;10.232;2022-07-29T07:44:31;20.60;74.20
38090;DHT22;23904;52.322;10.232;2022-07-29T07:46:57;20.80;73.40
38090;DHT22;23904;52.322;10.232;2022-07-29T07:49:22;20.80;73.20
38090;DHT22;23904;52.322;10.232;2022-07-29T07:51:48;20.70;73.40
38090;DHT22;23904;52.322;10.232;2022-07-29T07:54:14;20.60;73.60
38090;DHT22;23904;52.322;10.232;2022-07-29T07:56:39;20.70;72.90
38090;DHT22;23904;52.322;10.232;2022-07-29T07:59:05;20.70;74.10
38090;DHT22;23904;52.322;10.232;2022-07-29T08:01:30;20.90;73.70
38090;DHT22;23904;52.322;10.232;2022-07-29T08:03:56;20.90;73.90
38090;DHT22;23904;52.322;10.232;2022-07-29T08:06:21;21.00;73.20
38090;DHT22;23904;52.322;10.232;2022-07-29T08:08:49;21.00;72.80
38090;DHT22;23904;52.322;10.232;2022-07-29T08:11:14;21.30;72.00
38090;DHT22;23904;52.322;10.232;2022-07-29T08:13:40;21.30;71.70
38090;DHT22;23904;52.322;10.232;2022-07-29T08:16:07;21.50;71.90
38090;DHT22;23904;52.322;10.232;2022-07-29T08:18:41;21.70;71.50
38090;DHT22;23904;52.322;10.232;2022-07-29T08:21:07;22.00;69.50
38090;DHT22;23904;52.322;10.232;2022-07-29T08:23:33;22.10;68.40
38090;DHT22;23904;52.322;10.232;2022-07-29T08:26:08;22.10;68.50
38090;DHT22;23904;52.322;10.232;2022-07-29T08:28:39;22.20;68.80
38090;DHT22;23904;52.322;10.232;2022-07-29T08:31:05;22.30;69.10
38090;DHT22;23904;52.322;10.232;2022-07-29T08:33:31;22.60;67.80
38090;DHT22;23904;52.322;10.232;2022-07-29T08:35:57;22.70;66.00
38090;DHT22;23904;52.322;10.232;2022-07-29T08:38:22;22.80;66.80
38090;DHT22;23904;52.322;10.232;2022-07-29T08:40:48;22.90;66.60
38090;DHT22;23904;52.322;10.232;2022-07-29T08:43:14;22.90;67.40
38090;DHT22;23904;52.322;10.232;2022-07-29T08:45:48;23.00;67.60
38090;DHT22;23904;52.322;10.232;2022-07-29T08:48:23;23.30;66.70
38090;DHT22;23904;52.322;10.232;2022-07-29T08:50:52;24.00;66.00
38090;DHT22;23904;52.322;10.232;2022-07-29T08:53:21;24.80;62.60
38090;DHT22;23904;52.322;10.232;2022-07-29T08:55:49;25.80;59.10
38090;DHT22;23904;52.322;10.232;2022-07-29T08:58:16;26.20;58.90
38090;DHT22;23904;52.322;10.232;2022-07-29T09:00:44;26.50;57.70
38090;DHT22;23904;52.322;10.232;2022-07-29T09:03:12;26.80;56.70
38090;DHT22;23904;52.322;10.232;2022-07-29T09:05:42;26.60;56.80
38090;DHT22;23904;52.322;10.232;2022-07-29T09:08:08;26.30;56.00
38090;DHT22;23904;52.322;10.232;2022-07-29T09:10:37;26.20;56.50
38090;DHT22;23904;52.322;10.232;2022-07-29T09:13:02;26.70;55.70
38090;DHT22;23904;52.322;10.232;2022-07-29T09:15:28;26.50;55.80
38090;DHT22;23904;52.322;10.232;2022-07-29T09:17:53;27.10;55.70
38090;DHT22;23904;52.322;10.232;2022-07-29T09:20:21;27.70;54.70
38090;DHT22;23904;52.322;10.232;2022-07-29T09:22:48;28.60;53.00
38090;DHT22;23904;52.322;10.232;2022-07-29T09:25:34;28.70;51.70
38090;DHT22;23904;52.322;10.232;2022-07-29T09:30:32;28.80;51.20
38090;DHT22;23904;52.322;10.232;2022-07-29T09:33:00;29.00;51.30
38090;DHT22;23904;52.322;10.232;2022-07-29T09:35:27;30.00;49.30
38090;DHT22;23904;52.322;10.232;2022-07-29T09:37:54;29.80;49.00
38090;DHT22;23904;52.322;10.232;2022-07-29T09:40:30;29.20;49.80
38090;DHT22;23904;52.322;10.232;2022-07-29T09:42:55;29.00;50.20
38090;DHT22;23904;52.322;10.232;2022-07-29T09:45:30;29.10;50.60
38090;DHT22;23904;52.322;10.232;2022-07-29T09:47:56;29.50;49.70
38090;DHT22;23904;52.322;10.232;2022-07-29T09:50:42;29.80;49.20
38090;DHT22;23904;52.322;10.232;2022-07-29T09:53:09;30.00;49.40
38090;DHT22;23904;52.322;10.232;2022-07-29T09:55:51;30.10;48.80
38090;DHT22;23904;52.322;10.232;2022-07-29T09:58:21;29.70;49.30
38090;DHT22;23904;52.322;10.232;2022-07-29T10:00:48;29.70;50.40
38090;DHT22;23904;52.322;10.232;2022-07-29T10:03:15;30.10;48.90
38090;DHT22;23904;52.322;10.232;2022-07-29T10:05:41;29.70;49.90
38090;DHT22;23904;52.322;10.232;2022-07-29T10:08:08;29.50;50.80
38090;DHT22;23904;52.322;10.232;2022-07-29T10:10:36;29.90;50.20
38090;DHT22;23904;52.322;10.232;2022-07-29T10:13:14;30.80;49.10
38090;DHT22;23904;52.322;10.232;2022-07-29T10:15:41;32.40;46.40
38090;DHT22;23904;52.322;10.232;2022-07-29T10:18:11;33.90;44.20
38090;DHT22;23904;52.322;10.232;2022-07-29T10:20:37;34.30;43.90
38090;DHT22;23904;52.322;10.232;2022-07-29T10:23:03;33.70;43.30
38090;DHT22;23904;52.322;10.232;2022-07-29T10:25:30;32.90;44.60
38090;DHT22;23904;52.322;10.232;2022-07-29T10:27:55;32.30;44.40
38090;DHT22;23904;52.322;10.232;2022-07-29T10:30:22;31.40;45.80
38090;DHT22;23904;52.322;10.232;2022-07-29T10:44:08;29.40;49.50
38090;DHT22;23904;52.322;10.232;2022-07-29T10:46:35;29.50;48.70
38090;DHT22;23904;52.322;10.232;2022-07-29T10:52:07;28.60;50.10
38090;DHT22;23904;52.322;10.232;2022-07-29T10:57:14;27.80;52.10
38090;DHT22;23904;52.322;10.232;2022-07-29T10:59:40;27.50;53.10
38090;DHT22;23904;52.322;10.232;2022-07-29T11:07:22;27.70;52.00
38090;DHT22;23904;52.322;10.232;2022-07-29T11:10:19;27.50;52.80
38090;DHT22;23904;52.322;10.232;2022-07-29T11:15:13;26.90;53.90
38090;DHT22;23904;52.322;10.232;2022-07-29T11:20:38;26.60;54.40
38090;DHT22;23904;52.322;10.232;2022-07-29T11:33:56;26.00;56.00
38090;DHT22;23904;52.322;10.232;2022-07-29T11:36:22;26.10;56.30
38090;DHT22;23904;52.322;10.232;2022-07-29T11:38:47;26.10;55.80
38090;DHT22;23904;52.322;10.232;2022-07-29T11:41:23;26.10;55.70
38090;DHT22;23904;52.322;10.232;2022-07-29T11:43:59;26.10;55.80
38090;DHT22;23904;52.322;10.232;2022-07-29T11:49:11;26.10;56.80
38090;DHT22;23904;52.322;10.232;2022-07-29T11:51:37;26.10;56.70
38090;DHT22;23904;52.322;10.232;2022-07-29T11:54:04;26.20;56.60
38090;DHT22;23904;52.322;10.232;2022-07-29T11:56:31;26.20;56.10
38090;DHT22;23904;52.322;10.232;2022-07-29T11:59:05;26.20;55.50
38090;DHT22;23904;52.322;10.232;2022-07-29T12:01:31;26.20;56.20
38090;DHT22;23904;52.322;10.232;2022-07-29T12:04:04;26.10;56.20
38090;DHT22;23904;52.322;10.232;2022-07-29T12:06:30;26.20;55.90
38090;DHT22;23904;52.322;10.232;2022-07-29T12:08:56;26.20;55.30
38090;DHT22;23904;52.322;10.232;2022-07-29T12:11:22;26.30;55.60
38090;DHT22;23904;52.322;10.232;2022-07-29T12:13:48;26.30;56.30
38090;DHT22;23904;52.322;10.232;2022-07-29T12:16:13;26.40;55.90
38090;DHT22;23904;52.322;10.232;2022-07-29T12:18:39;26.70;55.30
38090;DHT22;23904;52.322;10.232;2022-07-29T12:21:04;26.90;54.80
38090;DHT22;23904;52.322;10.232;2022-07-29T12:23:31;26.90;55.20
38090;DHT22;23904;52.322;10.232;2022-07-29T12:25:58;27.10;54.50
38090;DHT22;23904;52.322;10.232;2022-07-29T12:28:23;27.00;55.10
38090;DHT22;23904;52.322;10.232;2022-07-29T12:30:50;27.20;54.00
38090;DHT22;23904;52.322;10.232;2022-07-29T12:33:27;27.10;54.40
38090;DHT22;23904;52.322;10.232;2022-07-29T12:36:13;27.10;53.40
38090;DHT22;23904;52.322;10.232;2022-07-29T12:38:40;27.10;53.50
38090;DHT22;23904;52.322;10.232;2022-07-29T12:41:05;27.10;53.70
38090;DHT22;23904;52.322;10.232;2022-07-29T12:43:31;27.20;53.50
38090;DHT22;23904;52.322;10.232;2022-07-29T12:45:57;27.10;53.10
38090;DHT22;23904;52.322;10.232;2022-07-29T12:48:40;27.00;54.00
38090;DHT22;23904;52.322;10.232;2022-07-29T12:51:07;26.90;53.30
38090;DHT22;23904;52.322;10.232;2022-07-29T12:53:34;26.90;53.10
38090;DHT22;23904;52.322;10.232;2022-07-29T12:56:00;26.80;53.90
38090;DHT22;23904;52.322;10.232;2022-07-29T13:01:14;27.10;53.10
38090;DHT22;23904;52.322;10.232;2022-07-29T13:03:54;27.10;52.70
38090;DHT22;23904;52.322;10.232;2022-07-29T13:09:11;27.30;52.10
38090;DHT22;23904;52.322;10.232;2022-07-29T13:11:44;27.50;50.80
38090;DHT22;23904;52.322;10.232;2022-07-29T13:14:12;27.70;50.20
38090;DHT22;23904;52.322;10.232;2022-07-29T13:17:02;27.90;49.80
38090;DHT22;23904;52.322;10.232;2022-07-29T13:19:39;28.00;48.80
38090;DHT22;23904;52.322;10.232;2022-07-29T13:22:09;28.10;49.00
38090;DHT22;23904;52.322;10.232;2022-07-29T13:24:55;27.90;48.40
38090;DHT22;23904;52.322;10.232;2022-07-29T13:27:23;28.00;47.40
38090;DHT22;23904;52.322;10.232;2022-07-29T13:29:50;27.90;47.50
38090;DHT22;23904;52.322;10.232;2022-07-29T13:32:18;27.70;47.70
38090;DHT22;23904;52.322;10.232;2022-07-29T13:34:43;27.70;48.20
38090;DHT22;23904;52.322;10.232;2022-07-29T13:37:09;27.70;46.80
38090;DHT22;23904;52.322;10.232;2022-07-29T13:39:35;27.80;45.50
38090;DHT22;23904;52.322;10.232;2022-07-29T13:42:00;27.80;45.20
38090;DHT22;23904;52.322;10.232;2022-07-29T13:44:26;28.00;44.60
38090;DHT22;23904;52.322;10.232;2022-07-29T13:46:51;28.20;44.40
38090;DHT22;23904;52.322;10.232;2022-07-29T13:49:17;28.20;43.80
38090;DHT22;23904;52.322;10.232;2022-07-29T13:51:43;28.20;43.60
38090;DHT22;23904;52.322;10.232;2022-07-29T13:54:08;28.30;43.50
38090;DHT22;23904;52.322;10.232;2022-07-29T13:56:34;28.30;43.30
38090;DHT22;23904;52.322;10.232;2022-07-29T13:58:59;28.30;43.70
38090;DHT22;23904;52.322;10.232;2022-07-29T14:01:25;28.40;42.60
38090;DHT22;23904;52.322;10.232;2022-07-29T14:03:51;28.30;42.90
38090;DHT22;23904;52.322;10.232;2022-07-29T14:06:16;28.20;43.70
38090;DHT22;23904;52.322;10.232;2022-07-29T14:08:42;28.00;43.40
38090;DHT22;23904;52.322;10.232;2022-07-29T14:11:08;27.90;44.10
38090;DHT22;23904;52.322;10.232;2022-07-29T14:13:33;28.00;43.10
38090;DHT22;23904;52.322;10.232;2022-07-29T14:15:59;28.00;43.70
38090;DHT22;23904;52.322;10.232;2022-07-29T14:18:24;27.90;43.30
38090;DHT22;23904;52.322;10.232;2022-07-29T14:20:50;27.70;43.60
38090;DHT22;23904;52.322;10.232;2022-07-29T14:23:16;27.70;43.40
38090;DHT22;23904;52.322;10.232;2022-07-29T14:25:42;27.70;43.50
38090;DHT22;23904;52.322;10.232;2022-07-29T14:28:08;27.50;43.60
38090;DHT22;23904;52.322;10.232;2022-07-29T14:30:33;27.40;44.00
38090;DHT22;23904;52.322;10.232;2022-07-29T14:32:59;27.30;44.20
38090;DHT22;23904;52.322;10.232;2022-07-29T14:35:24;27.40;44.40
38090;DHT22;23904;52.322;10.232;2022-07-29T14:37:50;27.40;44.20
38090;DHT22;23904;52.322;10.232;2022-07-29T14:40:15;27.30;44.60
38090;DHT22;23904;52.322;10.232;2022-07-29T14:42:41;27.20;44.60
38090;DHT22;23904;52.322;10.232;2022-07-29T14:45:07;27.20;45.60
38090;DHT22;23904;52.322;10.232;2022-07-29T14:47:33;27.10;45.50
38090;DHT22;23904;52.322;10.232;2022-07-29T14:49:59;27.10;45.30
38090;DHT22;23904;52.322;10.232;2022-07-29T14:52:25;26.90;45.50
38090;DHT22;23904;52.322;10.232;2022-07-29T14:54:50;26.90;45.70
38090;DHT22;23904;52.322;10.232;2022-07-29T14:57:16;26.80;45.90
38090;DHT22;23904;52.322;10.232;2022-07-29T14:59:41;26.80;46.40
38090;DHT22;23904;52.322;10.232;2022-07-29T15:02:07;26.90;46.40
38090;DHT22;23904;52.322;10.232;2022-07-29T15:04:33;26.90;46.30
38090;DHT22;23904;52.322;10.232;2022-07-29T15:06:58;26.90;46.00
38090;DHT22;23904;52.322;10.232;2022-07-29T15:09:24;26.90;46.40
38090;DHT22;23904;52.322;10.232;2022-07-29T15:11:50;26.90;46.50
38090;DHT22;23904;52.322;10.232;2022-07-29T15:14:15;26.80;46.80
38090;DHT22;23904;52.322;10.232;2022-07-29T15:16:41;26.80;47.00
38090;DHT22;23904;52.322;10.232;2022-07-29T15:19:08;26.80;46.90
38090;DHT22;23904;52.322;10.232;2022-07-29T15:21:34;26.70;47.40
38090;DHT22;23904;52.322;10.232;2022-07-29T15:23:59;26.60;47.50
38090;DHT22;23904;52.322;10.232;2022-07-29T15:26:25;26.60;47.60
38090;DHT22;23904;52.322;10.232;2022-07-29T15:28:51;26.50;47.70
38090;DHT22;23904;52.322;10.232;2022-07-29T15:31:16;26.40;47.90
38090;DHT22;23904;52.322;10.232;2022-07-29T15:33:44;26.40;47.70
38090;DHT22;23904;52.322;10.232;2022-07-29T15:36:09;26.40;48.20
38090;DHT22;23904;52.322;10.232;2022-07-29T15:38:37;26.30;48.10
38090;DHT22;23904;52.322;10.232;2022-07-29T15:41:04;26.20;48.40
38090;DHT22;23904;52.322;10.232;2022-07-29T15:43:30;26.20;48.20
38090;DHT22;23904;52.322;10.232;2022-07-29T15:45:55;26.20;48.30
38090;DHT22;23904;52.322;10.232;2022-07-29T15:48:39;26.20;48.50
38090;DHT22;23904;52.322;10.232;2022-07-29T15:51:05;26.10;49.00
38090;DHT22;23904;52.322;10.232;2022-07-29T15:53:30;26.20;49.20
38090;DHT22;23904;52.322;10.232;2022-07-29T15:55:56;26.10;49.40
38090;DHT22;23904;52.322;10.232;2022-07-29T15:58:22;26.10;49.20
38090;DHT22;23904;52.322;10.232;2022-07-29T16:00:47;26.10;49.30
38090;DHT22;23904;52.322;10.232;2022-07-29T16:03:13;26.10;49.60
38090;DHT22;23904;52.322;10.232;2022-07-29T16:05:39;26.10;50.20
38090;DHT22;23904;52.322;10.232;2022-07-29T16:08:05;26.10;50.80
38090;DHT22;23904;52.322;10.232;2022-07-29T16:10:30;26.10;49.90
38090;DHT22;23904;52.322;10.232;2022-07-29T16:12:56;26.10;50.20
38090;DHT22;23904;52.322;10.232;2022-07-29T16:15:21;26.10;49.90
38090;DHT22;23904;52.322;10.232;2022-07-29T16:17:47;26.10;49.90
38090;DHT22;23904;52.322;10.232;2022-07-29T16:20:14;26.20;49.90